Terminal Aerodrome Forecast
Issued by NWS Shreveport, LA

Current Version | Previous Version | Text Only | Print | Product List | Glossary On
Versions: 1 2 3 4 5 6 7 8 9 10 11 12 13
000
FTUS44 KSHV 300500
TAFSHV
TAF
KSHV 300525Z 3006/3106 10005KT P6SM BKN250
     FM301200 11004KT P6SM BKN120
     FM301500 14006KT P6SM BKN110
     FM301800 13006KT P6SM FEW040 BKN100
     FM310100 12005KT P6SM BKN150 BKN250=

USA.gov is the U.S. government's official web portal to all federal, state and local government web resources and services.